createdAt,value
2022-11-20T00:00:10.890Z,-5.26
2022-11-20T00:02:37.468Z,-5.32
2022-11-20T00:05:04.167Z,-5.23
2022-11-20T00:07:30.686Z,-5.21
2022-11-20T00:09:57.294Z,-5.12
2022-11-20T00:12:23.709Z,-5.00
2022-11-20T00:14:51.915Z,-4.88
2022-11-20T00:17:18.402Z,-4.86
2022-11-20T00:19:44.840Z,-4.95
2022-11-20T00:22:11.800Z,-4.98
2022-11-20T00:24:42.870Z,-5.03
2022-11-20T00:27:10.339Z,-5.05
2022-11-20T00:29:36.837Z,-5.07
2022-11-20T00:32:03.587Z,-5.13
2022-11-20T00:34:30.424Z,-5.11
2022-11-20T00:36:57.833Z,-5.06
2022-11-20T00:39:24.457Z,-5.19
2022-11-20T00:41:51.239Z,-5.22
2022-11-20T00:44:17.804Z,-5.24
2022-11-20T00:46:44.303Z,-5.13
2022-11-20T00:49:10.806Z,-5.19
2022-11-20T00:51:37.751Z,-5.25
2022-11-20T00:54:04.482Z,-5.21
2022-11-20T00:56:30.944Z,-5.24
2022-11-20T00:59:00.564Z,-4.90
2022-11-20T01:01:27.468Z,-5.01
2022-11-20T01:03:55.584Z,-5.07
2022-11-20T01:06:30.766Z,-5.15
2022-11-20T01:08:59.370Z,-5.29
2022-11-20T01:11:28.827Z,-5.36
2022-11-20T01:13:56.517Z,-5.44
2022-11-20T01:16:28.412Z,-5.53
2022-11-20T01:18:59.049Z,-5.49
2022-11-20T01:21:28.116Z,-5.48
2022-11-20T01:23:54.831Z,-5.58
2022-11-20T01:26:24.560Z,-5.63
2022-11-20T01:28:51.647Z,-5.64
2022-11-20T01:31:25.653Z,-5.69
2022-11-20T01:33:57.661Z,-5.67
2022-11-20T01:36:27.319Z,-5.70
2022-11-20T01:38:59.783Z,-5.71
2022-11-20T01:41:46.753Z,-5.70
2022-11-20T01:44:16.035Z,-5.78
2022-11-20T01:47:03.592Z,-5.81
2022-11-20T01:49:38.891Z,-5.83
2022-11-20T01:52:27.147Z,-5.87
2022-11-20T01:54:58.776Z,-5.92
2022-11-20T01:57:27.093Z,-5.93
2022-11-20T02:00:00.176Z,-5.89
2022-11-20T02:02:26.785Z,-5.87
2022-11-20T02:04:55.804Z,-5.91
2022-11-20T02:07:23.683Z,-5.85
2022-11-20T02:09:56.001Z,-5.81
2022-11-20T02:12:43.802Z,-5.89
2022-11-20T02:15:10.571Z,-5.91
2022-11-20T02:17:37.243Z,-5.90
2022-11-20T02:20:05.369Z,-5.88
2022-11-20T02:22:38.866Z,-5.92
2022-11-20T02:25:07.901Z,-5.82
2022-11-20T02:27:35.171Z,-5.73
2022-11-20T02:30:04.746Z,-5.63
2022-11-20T02:32:34.665Z,-5.72
2022-11-20T02:35:27.201Z,-5.59
2022-11-20T02:37:55.737Z,-5.60
2022-11-20T02:40:23.419Z,-5.66
2022-11-20T02:42:54.084Z,-5.65
2022-11-20T02:45:20.721Z,-5.58
2022-11-20T02:47:47.331Z,-5.58
2022-11-20T02:50:14.070Z,-5.68
2022-11-20T02:52:40.796Z,-5.77
2022-11-20T02:55:07.974Z,-5.83
2022-11-20T02:57:34.678Z,-5.88
2022-11-20T03:00:01.956Z,-5.92
2022-11-20T03:02:32.445Z,-5.94
2022-11-20T03:04:59.203Z,-6.00
2022-11-20T03:07:26.044Z,-6.03
2022-11-20T03:09:52.541Z,-6.06
2022-11-20T03:12:19.067Z,-6.05
2022-11-20T03:14:50.220Z,-6.10
2022-11-20T03:17:19.405Z,-6.13
2022-11-20T03:19:45.970Z,-6.16
2022-11-20T03:22:12.543Z,-6.09
2022-11-20T03:24:39.381Z,-5.91
2022-11-20T03:27:05.837Z,-5.96
2022-11-20T03:29:33.363Z,-6.04
2022-11-20T03:32:00.175Z,-6.10
2022-11-20T03:34:26.724Z,-6.17
2022-11-20T03:36:53.234Z,-6.16
2022-11-20T03:39:20.101Z,-6.23
2022-11-20T03:41:46.797Z,-6.25
2022-11-20T03:44:13.389Z,-6.31
2022-11-20T03:46:40.152Z,-6.34
2022-11-20T03:49:06.690Z,-6.36
2022-11-20T03:51:35.176Z,-6.39
2022-11-20T03:54:08.032Z,-6.44
2022-11-20T03:56:38.298Z,-6.48
2022-11-20T03:59:05.184Z,-6.48
2022-11-20T04:01:36.879Z,-6.50
2022-11-20T04:04:03.942Z,-6.51
2022-11-20T04:06:34.595Z,-6.49
2022-11-20T04:09:01.450Z,-6.48
2022-11-20T04:11:30.073Z,-6.49
2022-11-20T04:13:58.455Z,-6.49
2022-11-20T04:16:26.093Z,-6.45
2022-11-20T04:18:56.847Z,-6.47
2022-11-20T04:21:24.314Z,-6.41
2022-11-20T04:23:51.737Z,-6.46
2022-11-20T04:26:18.179Z,-6.39
2022-11-20T04:28:44.612Z,-6.41
2022-11-20T04:31:22.822Z,-6.24
2022-11-20T04:33:49.426Z,-6.36
2022-11-20T04:36:21.533Z,-6.31
2022-11-20T04:38:57.098Z,-6.29
2022-11-20T04:41:26.954Z,-6.22
2022-11-20T04:44:00.723Z,-6.32
2022-11-20T04:46:28.086Z,-6.23
2022-11-20T04:48:54.525Z,-6.23
2022-11-20T04:51:21.077Z,-6.28
2022-11-20T04:53:47.603Z,-6.27
2022-11-20T04:56:14.645Z,-6.28
2022-11-20T04:58:41.564Z,-6.29
2022-11-20T05:01:14.259Z,-6.34
2022-11-20T05:03:42.625Z,-6.36
2022-11-20T05:06:10.792Z,-6.41
2022-11-20T05:08:37.244Z,-6.45
2022-11-20T05:11:05.796Z,-6.55
2022-11-20T05:13:32.273Z,-6.53
2022-11-20T05:16:06.585Z,-6.65
2022-11-20T05:18:34.664Z,-6.66
2022-11-20T05:21:01.450Z,-6.68
2022-11-20T05:23:30.658Z,-6.73
2022-11-20T05:25:59.416Z,-6.66
2022-11-20T05:28:26.825Z,-6.74
2022-11-20T05:30:53.288Z,-6.78
2022-11-20T05:33:20.055Z,-6.79
2022-11-20T05:35:46.701Z,-6.83
2022-11-20T05:38:13.221Z,-6.87
2022-11-20T05:40:39.691Z,-6.79
2022-11-20T05:43:06.201Z,-6.71
2022-11-20T05:45:32.691Z,-6.63
2022-11-20T05:48:01.160Z,-6.53
2022-11-20T05:50:28.720Z,-6.59
2022-11-20T05:52:55.220Z,-6.63
2022-11-20T05:55:21.751Z,-6.71
2022-11-20T05:57:48.257Z,-6.69
2022-11-20T06:00:15.271Z,-6.76
2022-11-20T06:02:41.753Z,-6.80
2022-11-20T06:05:08.719Z,-6.80
2022-11-20T06:07:35.191Z,-6.83
2022-11-20T06:10:01.666Z,-6.86
2022-11-20T06:12:28.114Z,-6.87
2022-11-20T06:14:54.519Z,-6.87
2022-11-20T06:17:20.933Z,-6.91
2022-11-20T06:19:47.384Z,-6.91
2022-11-20T06:22:13.928Z,-6.97
2022-11-20T06:24:40.352Z,-6.89
2022-11-20T06:27:06.949Z,-6.91
2022-11-20T06:29:34.211Z,-6.89
2022-11-20T06:32:01.050Z,-6.83
2022-11-20T06:34:27.636Z,-6.88
2022-11-20T06:36:54.083Z,-6.89
2022-11-20T06:39:20.952Z,-6.81
2022-11-20T06:41:47.634Z,-6.48
2022-11-20T06:44:14.382Z,-6.21
2022-11-20T06:46:40.767Z,-6.21
2022-11-20T06:49:07.360Z,-6.07
2022-11-20T06:51:33.788Z,-6.16
2022-11-20T06:54:01.883Z,-6.08
2022-11-20T06:56:28.857Z,-6.02
2022-11-20T06:58:55.270Z,-5.87
2022-11-20T07:01:21.661Z,-5.74
2022-11-20T07:03:54.274Z,-5.79
2022-11-20T07:06:21.076Z,-5.79
2022-11-20T07:08:47.999Z,-5.70
2022-11-20T07:11:14.411Z,-5.47
2022-11-20T07:13:41.056Z,-5.10
2022-11-20T07:16:09.199Z,-4.94
2022-11-20T07:18:37.119Z,-4.82
2022-11-20T07:21:05.122Z,-4.60
2022-11-20T07:23:31.610Z,-4.57
2022-11-20T07:25:58.089Z,-4.63
2022-11-20T07:28:24.533Z,-4.26
2022-11-20T07:30:52.338Z,-3.72
2022-11-20T07:33:18.722Z,-2.87
2022-11-20T07:35:46.517Z,-2.22
2022-11-20T07:38:13.023Z,-1.25
2022-11-20T07:40:39.500Z,-1.09
2022-11-20T07:43:06.303Z,-0.50
2022-11-20T07:45:32.684Z,0.14
2022-11-20T07:47:59.090Z,1.15
2022-11-20T07:50:25.554Z,1.21
2022-11-20T07:52:51.991Z,1.57
2022-11-20T07:55:18.478Z,1.98
2022-11-20T07:57:45.011Z,2.39
2022-11-20T08:00:12.664Z,2.39
2022-11-20T08:02:42.630Z,2.63
2022-11-20T08:05:10.210Z,2.77
2022-11-20T08:07:41.414Z,2.17
2022-11-20T08:10:09.572Z,3.62
2022-11-20T08:12:54.631Z,4.15
2022-11-20T08:15:21.340Z,4.96
2022-11-20T08:18:08.254Z,4.66
2022-11-20T08:20:35.291Z,5.07
2022-11-20T08:23:02.882Z,4.58
2022-11-20T08:25:33.421Z,6.35
2022-11-20T08:28:02.173Z,6.57
2022-11-20T08:30:32.100Z,3.92
2022-11-20T08:33:11.590Z,5.89
2022-11-20T08:35:39.116Z,6.68
2022-11-20T08:38:06.170Z,7.46
2022-11-20T08:40:33.483Z,5.77
2022-11-20T08:42:59.871Z,6.26
2022-11-20T08:45:29.699Z,6.20
2022-11-20T08:48:03.742Z,4.42
2022-11-20T08:50:32.833Z,5.55
2022-11-20T08:53:04.696Z,5.21
2022-11-20T08:55:31.056Z,5.86
2022-11-20T08:57:57.385Z,6.69
2022-11-20T09:00:23.888Z,8.58
2022-11-20T09:02:50.247Z,6.11
2022-11-20T09:05:16.603Z,8.78
2022-11-20T09:07:43.101Z,9.49
2022-11-20T09:10:23.683Z,9.49
2022-11-20T09:12:52.636Z,11.28
2022-11-20T09:15:20.024Z,10.80
2022-11-20T09:17:52.755Z,12.11
2022-11-20T09:20:19.732Z,10.46
2022-11-20T09:22:46.125Z,9.67
2022-11-20T09:25:12.487Z,9.42
2022-11-20T09:27:38.963Z,7.95
2022-11-20T09:30:05.851Z,7.28
2022-11-20T09:32:32.415Z,7.74
2022-11-20T09:34:58.894Z,9.52
2022-11-20T09:37:25.295Z,8.10
2022-11-20T09:39:51.715Z,9.16
2022-11-20T09:42:34.574Z,11.30
2022-11-20T09:45:18.241Z,10.80
2022-11-20T09:48:03.658Z,11.27
2022-11-20T09:50:37.830Z,9.63
2022-11-20T09:53:07.205Z,7.15
2022-11-20T09:55:35.140Z,9.18
2022-11-20T09:58:01.615Z,9.97
2022-11-20T10:00:29.178Z,10.21
2022-11-20T10:03:16.180Z,10.10
2022-11-20T10:05:48.722Z,8.89
2022-11-20T10:08:43.040Z,9.72
2022-11-20T10:11:46.386Z,8.83
2022-11-20T10:14:12.942Z,9.02
2022-11-20T10:16:57.762Z,9.47
2022-11-20T10:19:52.782Z,8.48
2022-11-20T10:22:28.646Z,9.05
2022-11-20T10:25:14.853Z,9.61
2022-11-20T10:27:46.162Z,8.70
2022-11-20T10:30:15.645Z,9.34
2022-11-20T10:32:44.658Z,8.22
2022-11-20T10:35:24.361Z,8.37
2022-11-20T10:37:56.538Z,8.23
2022-11-20T10:40:37.141Z,8.89
2022-11-20T10:43:22.604Z,7.85
2022-11-20T10:45:56.415Z,7.17
2022-11-20T10:48:25.128Z,5.45
2022-11-20T10:51:25.239Z,5.11
2022-11-20T10:53:54.971Z,4.86
2022-11-20T10:56:30.344Z,3.99
2022-11-20T10:59:32.203Z,4.16
2022-11-20T11:02:01.609Z,4.50
2022-11-20T11:04:30.058Z,5.44
2022-11-20T11:07:02.385Z,6.34
2022-11-20T11:09:36.514Z,5.71
2022-11-20T11:12:07.920Z,5.62
2022-11-20T11:14:43.662Z,5.63
2022-11-20T11:17:28.373Z,5.23
2022-11-20T11:20:08.087Z,6.13
2022-11-20T11:22:36.417Z,6.28
2022-11-20T11:25:03.567Z,5.76
2022-11-20T11:27:29.949Z,5.47
2022-11-20T11:30:15.273Z,5.75
2022-11-20T11:32:41.869Z,7.05
2022-11-20T11:35:21.764Z,8.16
2022-11-20T11:37:49.402Z,8.96
2022-11-20T11:40:23.910Z,8.35
2022-11-20T11:42:55.649Z,8.63
2022-11-20T11:45:22.427Z,8.27
2022-11-20T11:47:49.841Z,6.94
2022-11-20T11:50:25.313Z,7.45
2022-11-20T11:53:06.562Z,6.75
2022-11-20T11:55:41.082Z,6.79
2022-11-20T11:58:23.945Z,6.89
2022-11-20T12:01:17.474Z,6.91
2022-11-20T12:03:45.852Z,7.31
2022-11-20T12:06:15.084Z,7.51
2022-11-20T12:09:00.655Z,7.68
2022-11-20T12:11:47.702Z,7.63
2022-11-20T12:14:26.425Z,7.88
2022-11-20T12:16:54.395Z,6.05
2022-11-20T12:19:21.285Z,5.16
2022-11-20T12:22:03.377Z,4.78
2022-11-20T12:24:57.405Z,4.16
2022-11-20T12:27:52.090Z,3.21
2022-11-20T12:30:20.324Z,4.03
2022-11-20T12:33:05.744Z,3.78
2022-11-20T12:35:56.953Z,3.13
2022-11-20T12:38:56.674Z,2.90
2022-11-20T12:42:05.601Z,4.11
2022-11-20T12:44:53.693Z,3.73
2022-11-20T12:47:33.313Z,3.48
2022-11-20T12:50:23.540Z,2.88
2022-11-20T12:52:58.909Z,2.36
2022-11-20T12:55:45.172Z,2.28
2022-11-20T12:58:36.358Z,2.48
2022-11-20T13:01:44.843Z,2.62
2022-11-20T13:04:37.164Z,2.47
2022-11-20T13:07:07.051Z,2.67
2022-11-20T13:09:43.685Z,2.68
2022-11-20T13:12:26.415Z,2.62
2022-11-20T13:15:15.015Z,2.57
2022-11-20T13:17:52.896Z,2.76
2022-11-20T13:20:20.008Z,2.63
2022-11-20T13:22:55.642Z,2.44
2022-11-20T13:25:32.562Z,2.54
2022-11-20T13:28:02.102Z,2.35
2022-11-20T13:30:29.996Z,2.59
2022-11-20T13:33:00.734Z,2.61
2022-11-20T13:35:30.684Z,2.46
2022-11-20T13:38:14.278Z,2.30
2022-11-20T13:40:57.016Z,2.28
2022-11-20T13:43:43.975Z,2.25
2022-11-20T13:46:16.308Z,2.21
2022-11-20T13:48:45.335Z,1.97
2022-11-20T13:51:30.698Z,2.11
2022-11-20T13:54:15.486Z,1.86
2022-11-20T13:57:19.836Z,1.78
2022-11-20T13:59:58.094Z,1.56
2022-11-20T14:02:27.918Z,1.57
2022-11-20T14:04:58.314Z,1.45
2022-11-20T14:07:27.604Z,1.36
2022-11-20T14:09:56.117Z,1.33
2022-11-20T14:12:28.174Z,1.26
2022-11-20T14:14:55.494Z,1.28
2022-11-20T14:17:29.772Z,1.24
2022-11-20T14:20:00.356Z,1.33
2022-11-20T14:22:28.093Z,1.30
2022-11-20T14:25:12.966Z,1.50
2022-11-20T14:27:41.661Z,1.75
2022-11-20T14:30:23.398Z,1.86
2022-11-20T14:32:50.486Z,1.73
2022-11-20T14:35:27.050Z,1.76
2022-11-20T14:37:53.979Z,1.46
2022-11-20T14:40:25.233Z,1.42
2022-11-20T14:42:51.991Z,1.33
2022-11-20T14:45:19.730Z,1.28
2022-11-20T14:47:46.841Z,1.14
2022-11-20T14:50:28.160Z,1.05
2022-11-20T14:52:57.003Z,0.89
2022-11-20T14:55:38.361Z,0.72
2022-11-20T14:58:07.066Z,0.67
2022-11-20T15:00:35.937Z,0.51
2022-11-20T15:03:02.348Z,0.37
2022-11-20T15:05:49.593Z,0.30
2022-11-20T15:08:17.300Z,0.21
2022-11-20T15:10:48.806Z,0.18
2022-11-20T15:13:28.347Z,0.10
2022-11-20T15:15:56.768Z,-0.07
2022-11-20T15:18:29.412Z,-0.10
2022-11-20T15:20:57.102Z,-0.18
2022-11-20T15:23:24.356Z,-0.17
2022-11-20T15:25:50.945Z,-0.25
2022-11-20T15:28:23.410Z,-0.32
2022-11-20T15:30:50.655Z,-0.33
2022-11-20T15:33:17.821Z,-0.33
2022-11-20T15:35:45.124Z,-0.45
2022-11-20T15:38:11.759Z,-0.50
2022-11-20T15:40:39.379Z,-0.61
2022-11-20T15:43:13.046Z,-0.63
2022-11-20T15:45:43.196Z,-0.64
2022-11-20T15:48:18.064Z,-0.61
2022-11-20T15:50:53.865Z,-0.64
2022-11-20T15:53:20.281Z,-0.61
2022-11-20T15:55:46.808Z,-0.67
2022-11-20T15:58:13.121Z,-0.77
2022-11-20T16:00:39.712Z,-0.72
2022-11-20T16:03:06.260Z,-0.80
2022-11-20T16:05:32.834Z,-0.95
2022-11-20T16:07:59.340Z,-1.04
2022-11-20T16:10:25.771Z,-0.90
2022-11-20T16:13:11.934Z,-1.01
2022-11-20T16:15:47.473Z,-1.04
2022-11-20T16:18:16.716Z,-1.21
2022-11-20T16:20:43.428Z,-1.22
2022-11-20T16:23:09.911Z,-1.22
2022-11-20T16:25:36.296Z,-1.22
2022-11-20T16:28:03.221Z,-1.25
2022-11-20T16:30:29.722Z,-1.28
2022-11-20T16:32:56.124Z,-1.32
2022-11-20T16:35:22.503Z,-1.28
2022-11-20T16:37:49.607Z,-1.36
2022-11-20T16:40:15.973Z,-1.31
2022-11-20T16:42:42.380Z,-1.35
2022-11-20T16:45:09.202Z,-1.40
2022-11-20T16:47:35.941Z,-1.44
2022-11-20T16:50:03.538Z,-1.44
2022-11-20T16:52:31.137Z,-1.45
2022-11-20T16:54:58.119Z,-1.52
2022-11-20T16:57:25.091Z,-1.50
2022-11-20T16:59:51.650Z,-1.64
2022-11-20T17:02:18.045Z,-1.66
2022-11-20T17:04:44.420Z,-1.64
2022-11-20T17:07:12.367Z,-1.67
2022-11-20T17:09:39.564Z,-1.68
2022-11-20T17:12:06.130Z,-1.58
2022-11-20T17:14:32.486Z,-1.64
2022-11-20T17:16:58.951Z,-1.60
2022-11-20T17:19:25.382Z,-1.72
2022-11-20T17:21:52.126Z,-1.72
2022-11-20T17:24:19.721Z,-1.79
2022-11-20T17:26:46.084Z,-1.74
2022-11-20T17:29:17.562Z,-1.74
2022-11-20T17:31:44.627Z,-1.70
2022-11-20T17:34:13.375Z,-1.78
2022-11-20T17:36:45.044Z,-1.79
2022-11-20T17:39:16.277Z,-1.86
2022-11-20T17:41:43.380Z,-1.80
2022-11-20T17:44:10.824Z,-1.80
2022-11-20T17:46:37.436Z,-1.79
2022-11-20T17:49:04.829Z,-1.79
2022-11-20T17:51:34.866Z,-1.86
2022-11-20T17:54:03.867Z,-1.86
2022-11-20T17:56:50.375Z,-1.93
2022-11-20T17:59:18.597Z,-1.90
2022-11-20T18:01:45.209Z,-1.92
2022-11-20T18:04:12.473Z,-1.92
2022-11-20T18:06:39.328Z,-1.95
2022-11-20T18:09:06.717Z,-2.06
2022-11-20T18:11:38.678Z,-2.08
2022-11-20T18:14:26.162Z,-2.10
2022-11-20T18:17:11.205Z,-2.17
2022-11-20T18:19:47.962Z,-2.13
2022-11-20T18:22:27.325Z,-2.24
2022-11-20T18:24:53.827Z,-2.19
2022-11-20T18:27:21.162Z,-2.24
2022-11-20T18:29:52.343Z,-2.35
2022-11-20T18:32:21.827Z,-2.28
2022-11-20T18:34:48.442Z,-2.31
2022-11-20T18:37:16.350Z,-2.32
2022-11-20T18:39:43.243Z,-2.28
2022-11-20T18:42:34.185Z,-2.26
2022-11-20T18:45:01.436Z,-2.32
2022-11-20T18:47:30.772Z,-2.32
2022-11-20T18:49:59.122Z,-2.29
2022-11-20T18:52:28.226Z,-2.38
2022-11-20T18:54:55.228Z,-2.47
2022-11-20T18:57:26.761Z,-2.48
2022-11-20T18:59:54.462Z,-2.52
2022-11-20T19:02:21.519Z,-2.55
2022-11-20T19:04:48.566Z,-2.59
2022-11-20T19:07:15.810Z,-2.63
2022-11-20T19:09:44.260Z,-2.57
2022-11-20T19:12:12.177Z,-2.60
2022-11-20T19:14:38.623Z,-2.71
2022-11-20T19:17:06.709Z,-2.81
2022-11-20T19:19:36.577Z,-2.92
2022-11-20T19:22:04.087Z,-2.94
2022-11-20T19:24:30.707Z,-2.86
2022-11-20T19:26:57.153Z,-2.93
2022-11-20T19:29:26.071Z,-3.01
2022-11-20T19:31:53.629Z,-3.03
2022-11-20T19:34:20.098Z,-3.07
2022-11-20T19:36:46.665Z,-3.08
2022-11-20T19:39:13.176Z,-3.14
2022-11-20T19:41:40.717Z,-3.12
2022-11-20T19:44:13.905Z,-3.14
2022-11-20T19:46:40.963Z,-3.18
2022-11-20T19:49:13.507Z,-3.17
2022-11-20T19:51:44.770Z,-3.20
2022-11-20T19:54:11.423Z,-3.20
2022-11-20T19:56:38.169Z,-3.19
2022-11-20T19:59:04.986Z,-3.02
2022-11-20T20:01:31.982Z,-3.10
2022-11-20T20:04:02.445Z,-3.08
2022-11-20T20:06:29.732Z,-3.14
2022-11-20T20:08:58.384Z,-2.89
2022-11-20T20:11:26.932Z,-2.82
2022-11-20T20:13:53.639Z,-2.70
2022-11-20T20:16:23.215Z,-2.87
2022-11-20T20:18:49.874Z,-3.00
2022-11-20T20:21:18.683Z,-3.03
2022-11-20T20:23:45.496Z,-3.02
2022-11-20T20:26:12.283Z,-2.93
2022-11-20T20:28:39.053Z,-2.85
2022-11-20T20:31:10.634Z,-2.77
2022-11-20T20:33:38.295Z,-2.70
2022-11-20T20:36:06.382Z,-2.59
2022-11-20T20:38:33.247Z,-2.47
2022-11-20T20:40:59.716Z,-2.42
2022-11-20T20:43:26.387Z,-2.28
2022-11-20T20:45:55.280Z,-2.13
2022-11-20T20:48:23.656Z,-2.09
2022-11-20T20:50:57.952Z,-2.06
2022-11-20T20:53:27.424Z,-1.81
2022-11-20T20:55:58.699Z,-1.59
2022-11-20T20:58:25.678Z,-1.74
2022-11-20T21:00:52.599Z,-1.87
2022-11-20T21:03:19.259Z,-1.92
2022-11-20T21:05:46.178Z,-1.80
2022-11-20T21:08:21.549Z,-1.79
2022-11-20T21:10:56.362Z,-1.84
2022-11-20T21:13:23.618Z,-1.73
2022-11-20T21:15:51.124Z,-1.77
2022-11-20T21:18:19.198Z,-1.75
2022-11-20T21:21:04.686Z,-1.83
2022-11-20T21:23:31.524Z,-1.74
2022-11-20T21:26:01.390Z,-1.69
2022-11-20T21:28:28.856Z,-1.68
2022-11-20T21:31:12.721Z,-1.69
2022-11-20T21:33:44.048Z,-1.53
2022-11-20T21:36:13.084Z,-1.57
2022-11-20T21:38:40.295Z,-1.54
2022-11-20T21:41:08.477Z,-1.60
2022-11-20T21:43:35.633Z,-1.56
2022-11-20T21:46:04.584Z,-1.41
2022-11-20T21:48:31.862Z,-1.31
2022-11-20T21:51:06.474Z,-1.32
2022-11-20T21:53:33.235Z,-1.30
2022-11-20T21:55:59.689Z,-1.17
2022-11-20T21:58:26.460Z,-1.26
2022-11-20T22:00:52.899Z,-1.31
2022-11-20T22:03:19.302Z,-1.32
2022-11-20T22:05:59.011Z,-1.36
2022-11-20T22:08:26.386Z,-1.11
2022-11-20T22:10:57.527Z,-1.25
2022-11-20T22:13:44.297Z,-1.36
2022-11-20T22:16:10.813Z,-1.30
2022-11-20T22:18:45.099Z,-1.24
2022-11-20T22:21:12.662Z,-1.15
2022-11-20T22:23:39.404Z,-1.02
2022-11-20T22:26:10.765Z,-1.05
2022-11-20T22:28:37.865Z,-1.00
2022-11-20T22:31:07.096Z,-0.80
2022-11-20T22:33:34.700Z,-1.05
2022-11-20T22:36:08.237Z,-1.08
2022-11-20T22:38:39.255Z,-1.12
2022-11-20T22:41:08.833Z,-1.09
2022-11-20T22:43:35.872Z,-0.94
2022-11-20T22:46:07.900Z,-0.77
2022-11-20T22:48:35.755Z,-0.94
2022-11-20T22:51:07.517Z,-0.91
2022-11-20T22:53:34.648Z,-0.99
2022-11-20T22:56:01.826Z,-1.05
2022-11-20T22:58:29.812Z,-1.05
2022-11-20T23:00:57.187Z,-0.92
2022-11-20T23:03:23.621Z,-0.76
2022-11-20T23:05:50.250Z,-0.81
2022-11-20T23:08:16.940Z,-0.77
2022-11-20T23:10:43.297Z,-0.85
2022-11-20T23:13:09.736Z,-0.93
2022-11-20T23:15:36.059Z,-0.62
2022-11-20T23:18:02.457Z,-0.75
2022-11-20T23:20:28.774Z,-0.58
2022-11-20T23:22:55.207Z,-0.81
2022-11-20T23:25:21.575Z,-0.83
2022-11-20T23:27:47.936Z,-0.60
2022-11-20T23:30:14.659Z,-0.76
2022-11-20T23:32:41.090Z,-0.84
2022-11-20T23:35:09.072Z,-0.67
2022-11-20T23:37:35.445Z,-0.63
2022-11-20T23:40:01.835Z,-0.62
2022-11-20T23:42:28.468Z,-0.65
2022-11-20T23:44:56.091Z,-0.69
2022-11-20T23:47:22.460Z,-0.82
2022-11-20T23:49:48.803Z,-0.72
2022-11-20T23:52:15.174Z,-0.68
2022-11-20T23:54:41.510Z,-0.78
2022-11-20T23:57:10.178Z,-0.86
2022-11-20T23:59:36.572Z,-0.79
